createdAt,value
2023-01-01T00:02:37.231Z,102532.75
2023-01-01T00:07:32.398Z,102531.81
2023-01-01T00:12:28.064Z,102567.84
2023-01-01T00:17:23.882Z,102558.13
2023-01-01T00:22:52.664Z,102562.50
2023-01-01T00:27:35.432Z,102572.69
2023-01-01T00:32:28.971Z,102504.09
2023-01-01T00:37:25.257Z,102506.31
2023-01-01T00:42:21.133Z,102351.38
2023-01-01T00:47:19.901Z,102481.56
2023-01-01T00:52:13.624Z,102457.53
2023-01-01T00:57:14.319Z,102605.59
2023-01-01T01:02:07.852Z,102597.22
2023-01-01T01:07:02.721Z,102437.97
2023-01-01T01:12:17.613Z,102529.28
2023-01-01T01:17:12.533Z,102524.16
2023-01-01T01:22:10.035Z,102556.84
2023-01-01T01:27:03.324Z,102587.66
2023-01-01T01:31:56.637Z,102508.53
2023-01-01T01:36:51.699Z,102513.94
2023-01-01T01:41:46.689Z,102484.22
2023-01-01T01:46:46.705Z,102542.94
2023-01-01T01:51:42.097Z,102579.56
2023-01-01T01:56:44.367Z,102365.00
2023-01-01T02:01:39.224Z,102571.88
2023-01-01T02:06:34.405Z,102454.41
2023-01-01T02:11:27.924Z,102478.25
2023-01-01T02:16:24.816Z,102556.72
2023-01-01T02:21:23.493Z,102587.75
2023-01-01T02:26:38.937Z,102584.84
2023-01-01T02:31:39.324Z,102588.94
2023-01-01T02:36:35.284Z,102542.66
2023-01-01T02:41:34.617Z,102543.97
2023-01-01T02:46:34.120Z,102560.41
2023-01-01T02:51:36.718Z,102519.72
2023-01-01T02:56:38.695Z,102552.41
2023-01-01T03:01:40.236Z,102373.44
2023-01-01T03:06:42.182Z,102432.44
2023-01-01T03:11:44.493Z,102544.28
2023-01-01T03:16:44.760Z,102550.38
2023-01-01T03:21:44.710Z,102512.94
2023-01-01T03:26:40.248Z,102514.63
2023-01-01T03:31:35.065Z,102501.09
2023-01-01T03:36:35.513Z,102564.25
2023-01-01T03:41:35.852Z,102538.66
2023-01-01T03:46:34.545Z,102477.34
2023-01-01T03:51:44.939Z,102534.38
2023-01-01T03:56:42.032Z,102560.78
2023-01-01T04:01:38.962Z,102560.75
2023-01-01T04:06:35.576Z,102524.09
2023-01-01T04:11:49.763Z,102574.50
2023-01-01T04:16:43.339Z,102574.53
2023-01-01T04:21:39.624Z,102567.66
2023-01-01T04:26:32.853Z,102540.47
2023-01-01T04:31:26.170Z,102579.00
2023-01-01T04:36:19.888Z,102532.97
2023-01-01T04:41:14.469Z,102573.16
2023-01-01T04:46:07.774Z,102543.16
2023-01-01T04:51:04.037Z,102563.56
2023-01-01T04:55:57.487Z,102575.28
2023-01-01T05:00:53.348Z,102558.38
2023-01-01T05:05:51.301Z,102526.03
2023-01-01T05:10:44.800Z,102547.56
2023-01-01T05:15:39.037Z,102569.25
2023-01-01T05:20:36.637Z,102574.84
2023-01-01T05:25:34.570Z,102569.66
2023-01-01T05:30:27.820Z,102537.00
2023-01-01T05:35:26.561Z,102579.47
2023-01-01T05:40:22.948Z,102453.31
2023-01-01T05:45:23.522Z,102586.88
2023-01-01T05:50:19.773Z,102480.34
2023-01-01T05:55:17.795Z,102325.47
2023-01-01T06:00:16.731Z,102602.16
2023-01-01T06:05:10.623Z,102609.94
2023-01-01T06:10:04.007Z,102587.13
2023-01-01T06:14:57.185Z,102621.22
2023-01-01T06:19:51.661Z,102632.66
2023-01-01T06:24:44.745Z,102634.06
2023-01-01T06:29:39.702Z,102640.59
2023-01-01T06:34:32.879Z,102624.00
2023-01-01T06:39:28.062Z,102641.28
2023-01-01T06:44:21.195Z,102652.50
2023-01-01T06:49:14.524Z,102652.75
2023-01-01T06:54:08.584Z,102646.94
2023-01-01T06:59:03.511Z,102635.09
2023-01-01T07:03:57.962Z,102661.63
2023-01-01T07:08:51.299Z,102616.34
2023-01-01T07:13:44.436Z,102604.13
2023-01-01T07:18:39.160Z,102653.47
2023-01-01T07:23:34.359Z,102650.53
2023-01-01T07:28:28.250Z,102646.59
2023-01-01T07:33:24.461Z,102608.16
2023-01-01T07:38:19.009Z,102645.44
2023-01-01T07:43:14.267Z,102640.66
2023-01-01T07:48:07.559Z,102497.28
2023-01-01T07:53:00.952Z,102622.78
2023-01-01T07:57:55.967Z,102657.22
2023-01-01T08:02:50.739Z,102661.25
2023-01-01T08:07:47.813Z,102668.81
2023-01-01T08:12:41.009Z,102644.06
2023-01-01T08:17:37.785Z,102669.84
2023-01-01T08:22:34.197Z,102671.94
2023-01-01T08:27:27.489Z,102679.13
2023-01-01T08:32:20.736Z,102620.81
2023-01-01T08:37:15.939Z,102637.13
2023-01-01T08:42:12.344Z,102675.44
2023-01-01T08:47:06.018Z,102661.69
2023-01-01T08:51:59.135Z,102634.22
2023-01-01T08:56:53.651Z,102634.34
2023-01-01T09:01:47.007Z,102647.59
2023-01-01T09:06:40.530Z,102644.53
2023-01-01T09:11:33.683Z,102620.53
2023-01-01T09:16:29.983Z,102646.66
2023-01-01T09:21:23.286Z,102634.78
2023-01-01T09:26:16.503Z,102630.56
2023-01-01T09:31:09.750Z,102637.19
2023-01-01T09:36:29.057Z,102613.06
2023-01-01T09:41:32.370Z,102635.34
2023-01-01T09:46:31.745Z,102592.28
2023-01-01T09:51:31.896Z,102550.47
2023-01-01T09:56:28.521Z,102625.44
2023-01-01T10:01:35.073Z,102625.09
2023-01-01T10:06:33.107Z,102625.19
2023-01-01T10:11:33.016Z,102539.81
2023-01-01T10:16:34.598Z,102562.31
2023-01-01T10:21:33.387Z,102582.72
2023-01-01T10:26:30.819Z,102597.81
2023-01-01T10:31:33.154Z,102565.53
2023-01-01T10:36:28.206Z,102579.34
2023-01-01T10:41:22.814Z,102587.66
2023-01-01T10:46:23.664Z,102585.75
2023-01-01T10:51:24.936Z,102544.72
2023-01-01T10:56:20.646Z,102536.22
2023-01-01T11:01:22.250Z,102581.88
2023-01-01T11:06:22.527Z,102546.75
2023-01-01T11:11:22.673Z,102531.34
2023-01-01T11:16:17.050Z,102570.28
2023-01-01T11:21:10.457Z,102559.81
2023-01-01T11:26:07.158Z,102533.13
2023-01-01T11:31:08.031Z,102373.91
2023-01-01T11:36:03.182Z,102540.72
2023-01-01T11:40:58.138Z,102546.06
2023-01-01T11:45:52.392Z,102507.28
2023-01-01T11:50:54.151Z,102405.97
2023-01-01T11:55:53.530Z,102492.53
2023-01-01T12:00:49.685Z,102520.25
2023-01-01T12:05:50.604Z,102509.38
2023-01-01T12:10:52.366Z,102501.13
2023-01-01T12:15:53.158Z,102512.88
2023-01-01T12:20:58.833Z,102462.00
2023-01-01T12:26:05.570Z,102467.81
2023-01-01T12:31:08.975Z,102513.34
2023-01-01T12:36:20.638Z,102523.56
2023-01-01T12:41:28.462Z,102488.94
2023-01-01T12:46:40.512Z,102439.66
2023-01-01T12:51:46.043Z,102475.03
2023-01-01T12:56:54.319Z,102477.47
2023-01-01T13:01:49.605Z,102469.03
2023-01-01T13:06:48.781Z,102440.97
2023-01-01T13:11:46.510Z,102478.50
2023-01-01T13:16:42.376Z,102481.50
2023-01-01T13:21:39.225Z,102502.66
2023-01-01T13:26:43.688Z,102412.66
2023-01-01T13:32:05.337Z,102461.59
2023-01-01T13:37:27.491Z,102490.22
2023-01-01T13:42:44.664Z,102483.75
2023-01-01T13:47:53.513Z,102469.56
2023-01-01T13:53:12.364Z,102492.94
2023-01-01T13:58:38.106Z,102482.06
2023-01-01T14:03:43.693Z,102474.44
2023-01-01T14:08:39.160Z,102467.66
2023-01-01T14:13:43.309Z,102411.28
2023-01-01T14:18:42.192Z,102428.28
2023-01-01T14:23:38.573Z,102499.38
2023-01-01T14:28:34.327Z,102477.69
2023-01-01T14:33:33.632Z,102500.00
2023-01-01T14:38:28.582Z,102488.38
2023-01-01T14:43:21.903Z,102463.66
2023-01-01T16:01:13.299Z,102542.91
2023-01-01T17:52:20.078Z,102497.50
2023-01-01T18:54:00.454Z,102327.50
2023-01-01T18:59:02.166Z,102539.38
2023-01-01T19:04:06.662Z,102280.22
2023-01-01T19:09:18.556Z,102468.88
2023-01-01T19:14:17.067Z,102446.00
2023-01-01T19:19:18.586Z,102486.13
2023-01-01T19:24:23.165Z,102529.56
2023-01-01T19:29:19.332Z,102524.00
2023-01-01T19:34:13.720Z,102253.81
2023-01-01T19:39:08.071Z,102537.63
2023-01-01T19:44:09.929Z,102533.50
2023-01-01T19:49:05.230Z,102403.31
2023-01-01T19:53:58.647Z,102551.47
2023-01-01T19:58:52.210Z,102546.50
2023-01-01T20:03:55.474Z,102357.47
2023-01-01T20:08:49.938Z,102544.47
2023-01-01T20:13:44.619Z,102546.56
2023-01-01T20:18:43.220Z,102451.19
2023-01-01T20:23:38.223Z,102462.22
2023-01-01T20:28:49.413Z,102456.31
2023-01-01T20:33:45.896Z,102471.06
2023-01-01T20:38:40.775Z,102322.31
2023-01-01T20:43:34.264Z,102343.72
2023-01-01T20:48:30.769Z,102403.00
2023-01-01T20:53:25.549Z,102477.56
2023-01-01T20:58:23.850Z,102358.38
2023-01-01T21:03:21.098Z,102487.59
2023-01-01T21:08:18.676Z,102426.53
2023-01-01T21:13:16.907Z,102409.97
2023-01-01T21:18:16.347Z,102362.66
2023-01-01T21:23:18.821Z,102415.63
2023-01-01T21:28:16.442Z,102563.13
2023-01-01T21:33:17.312Z,102475.81
2023-01-01T21:38:20.483Z,102559.75
2023-01-01T21:43:26.907Z,102397.06
2023-01-01T21:48:28.762Z,102363.03
2023-01-01T21:53:24.363Z,102437.47
2023-01-01T21:58:36.045Z,102523.44
2023-01-01T22:03:33.422Z,102537.06
2023-01-01T22:09:17.834Z,102520.25
2023-01-01T22:14:52.381Z,102516.44
2023-01-01T22:20:07.759Z,102539.94
2023-01-01T22:25:49.886Z,102317.72
2023-01-01T22:30:57.298Z,102542.75
2023-01-01T22:35:59.214Z,102261.66
2023-01-01T22:41:10.367Z,102538.97
2023-01-01T22:46:17.237Z,102371.84
2023-01-01T22:51:37.378Z,102365.16
2023-01-01T22:56:53.553Z,102276.50
2023-01-01T23:01:52.146Z,102353.41
2023-01-01T23:06:51.710Z,102503.66
2023-01-01T23:12:08.690Z,102302.44
2023-01-01T23:17:27.297Z,102193.78
2023-01-01T23:22:49.057Z,102287.13
2023-01-01T23:27:53.729Z,102413.13
2023-01-01T23:32:53.854Z,102264.38
2023-01-01T23:37:49.337Z,102411.50
2023-01-01T23:42:46.274Z,102219.63
2023-01-01T23:47:40.611Z,102237.66
2023-01-01T23:52:35.565Z,102431.81
2023-01-01T23:57:30.782Z,102246.00
